sensor_id;sensor_type;location;lat;lon;timestamp;P1;durP1;ratioP1;P2;durP2;ratioP2
22026;SDS011;11177;50.966;10.070;2022-09-09T00:01:23;4.45;;;1.85;;
22026;SDS011;11177;50.966;10.070;2022-09-09T00:04:05;8.00;;;1.90;;
22026;SDS011;11177;50.966;10.070;2022-09-09T00:09:50;6.33;;;1.80;;
22026;SDS011;11177;50.966;10.070;2022-09-09T00:22:13;9.57;;;1.85;;
22026;SDS011;11177;50.966;10.070;2022-09-09T00:24:52;1.98;;;1.40;;
22026;SDS011;11177;50.966;10.070;2022-09-09T00:30:00;7.03;;;1.67;;
22026;SDS011;11177;50.966;10.070;2022-09-09T00:32:40;4.82;;;1.50;;
22026;SDS011;11177;50.966;10.070;2022-09-09T00:35:27;4.13;;;1.70;;
22026;SDS011;11177;50.966;10.070;2022-09-09T00:37:58;4.15;;;1.80;;
22026;SDS011;11177;50.966;10.070;2022-09-09T00:40:33;6.05;;;1.50;;
22026;SDS011;11177;50.966;10.070;2022-09-09T00:46:05;3.03;;;1.50;;
22026;SDS011;11177;50.966;10.070;2022-09-09T00:55:24;2.75;;;1.30;;
22026;SDS011;11177;50.966;10.070;2022-09-09T00:58:07;4.45;;;1.40;;
22026;SDS011;11177;50.966;10.070;2022-09-09T01:00:38;9.43;;;1.48;;
22026;SDS011;11177;50.966;10.070;2022-09-09T01:03:36;3.92;;;1.85;;
22026;SDS011;11177;50.966;10.070;2022-09-09T01:17:15;5.95;;;1.58;;
22026;SDS011;11177;50.966;10.070;2022-09-09T01:19:57;3.95;;;1.48;;
22026;SDS011;11177;50.966;10.070;2022-09-09T01:26:08;3.67;;;1.57;;
22026;SDS011;11177;50.966;10.070;2022-09-09T01:28:51;8.68;;;1.63;;
22026;SDS011;11177;50.966;10.070;2022-09-09T01:31:36;8.77;;;1.70;;
22026;SDS011;11177;50.966;10.070;2022-09-09T01:34:11;6.03;;;1.75;;
22026;SDS011;11177;50.966;10.070;2022-09-09T01:36:42;9.93;;;1.92;;
22026;SDS011;11177;50.966;10.070;2022-09-09T01:39:17;4.43;;;2.03;;
22026;SDS011;11177;50.966;10.070;2022-09-09T01:41:44;4.72;;;1.80;;
22026;SDS011;11177;50.966;10.070;2022-09-09T01:44:10;5.30;;;1.83;;
22026;SDS011;11177;50.966;10.070;2022-09-09T01:46:37;3.95;;;1.60;;
22026;SDS011;11177;50.966;10.070;2022-09-09T01:49:05;4.38;;;1.70;;
22026;SDS011;11177;50.966;10.070;2022-09-09T01:51:33;7.72;;;1.98;;
22026;SDS011;11177;50.966;10.070;2022-09-09T01:54:01;5.43;;;1.73;;
22026;SDS011;11177;50.966;10.070;2022-09-09T01:57:31;5.28;;;1.80;;
22026;SDS011;11177;50.966;10.070;2022-09-09T02:05:56;5.28;;;1.60;;
22026;SDS011;11177;50.966;10.070;2022-09-09T02:08:42;5.20;;;1.60;;
22026;SDS011;11177;50.966;10.070;2022-09-09T02:11:13;2.85;;;1.40;;
22026;SDS011;11177;50.966;10.070;2022-09-09T02:13:42;3.25;;;1.70;;
22026;SDS011;11177;50.966;10.070;2022-09-09T02:19:29;3.47;;;1.70;;
22026;SDS011;11177;50.966;10.070;2022-09-09T02:22:04;5.45;;;1.70;;
22026;SDS011;11177;50.966;10.070;2022-09-09T02:24:32;5.18;;;1.85;;
22026;SDS011;11177;50.966;10.070;2022-09-09T02:27:01;6.32;;;1.88;;
22026;SDS011;11177;50.966;10.070;2022-09-09T02:29:31;3.28;;;1.55;;
22026;SDS011;11177;50.966;10.070;2022-09-09T02:32:01;6.00;;;1.70;;
22026;SDS011;11177;50.966;10.070;2022-09-09T02:34:32;3.95;;;1.67;;
22026;SDS011;11177;50.966;10.070;2022-09-09T02:37:02;5.65;;;1.95;;
22026;SDS011;11177;50.966;10.070;2022-09-09T02:39:30;3.25;;;1.60;;
22026;SDS011;11177;50.966;10.070;2022-09-09T02:41:57;3.67;;;2.00;;
22026;SDS011;11177;50.966;10.070;2022-09-09T02:44:24;7.88;;;1.75;;
22026;SDS011;11177;50.966;10.070;2022-09-09T02:52:20;4.18;;;1.70;;
22026;SDS011;11177;50.966;10.070;2022-09-09T02:54:54;7.18;;;2.00;;
22026;SDS011;11177;50.966;10.070;2022-09-09T02:57:26;4.53;;;1.75;;
22026;SDS011;11177;50.966;10.070;2022-09-09T02:59:56;3.70;;;1.45;;
22026;SDS011;11177;50.966;10.070;2022-09-09T03:02:24;4.40;;;1.85;;
22026;SDS011;11177;50.966;10.070;2022-09-09T03:04:51;3.08;;;1.70;;
22026;SDS011;11177;50.966;10.070;2022-09-09T03:07:19;5.03;;;1.80;;
22026;SDS011;11177;50.966;10.070;2022-09-09T03:09:46;5.15;;;1.90;;
22026;SDS011;11177;50.966;10.070;2022-09-09T03:12:13;3.70;;;1.70;;
22026;SDS011;11177;50.966;10.070;2022-09-09T03:14:40;4.57;;;1.80;;
22026;SDS011;11177;50.966;10.070;2022-09-09T03:17:06;3.97;;;1.75;;
22026;SDS011;11177;50.966;10.070;2022-09-09T03:19:34;3.70;;;1.60;;
22026;SDS011;11177;50.966;10.070;2022-09-09T03:22:01;3.38;;;2.00;;
22026;SDS011;11177;50.966;10.070;2022-09-09T03:24:30;5.97;;;1.70;;
22026;SDS011;11177;50.966;10.070;2022-09-09T03:26:57;5.30;;;1.95;;
22026;SDS011;11177;50.966;10.070;2022-09-09T03:29:24;6.20;;;1.70;;
22026;SDS011;11177;50.966;10.070;2022-09-09T03:31:50;4.28;;;1.83;;
22026;SDS011;11177;50.966;10.070;2022-09-09T03:34:17;3.13;;;1.67;;
22026;SDS011;11177;50.966;10.070;2022-09-09T03:36:44;4.60;;;1.45;;
22026;SDS011;11177;50.966;10.070;2022-09-09T03:39:11;4.55;;;1.60;;
22026;SDS011;11177;50.966;10.070;2022-09-09T03:41:37;4.45;;;1.60;;
22026;SDS011;11177;50.966;10.070;2022-09-09T03:44:04;5.30;;;1.60;;
22026;SDS011;11177;50.966;10.070;2022-09-09T03:46:31;4.32;;;1.50;;
22026;SDS011;11177;50.966;10.070;2022-09-09T03:48:58;2.85;;;1.50;;
22026;SDS011;11177;50.966;10.070;2022-09-09T03:51:25;4.45;;;1.75;;
22026;SDS011;11177;50.966;10.070;2022-09-09T03:53:51;4.43;;;1.60;;
22026;SDS011;11177;50.966;10.070;2022-09-09T03:56:21;2.72;;;1.63;;
22026;SDS011;11177;50.966;10.070;2022-09-09T03:58:48;4.60;;;1.90;;
22026;SDS011;11177;50.966;10.070;2022-09-09T04:01:14;3.88;;;1.58;;
22026;SDS011;11177;50.966;10.070;2022-09-09T04:03:44;4.05;;;1.70;;
22026;SDS011;11177;50.966;10.070;2022-09-09T04:06:11;2.90;;;1.65;;
22026;SDS011;11177;50.966;10.070;2022-09-09T04:08:40;7.43;;;2.00;;
22026;SDS011;11177;50.966;10.070;2022-09-09T04:11:08;6.35;;;1.75;;
22026;SDS011;11177;50.966;10.070;2022-09-09T04:13:35;6.80;;;1.88;;
22026;SDS011;11177;50.966;10.070;2022-09-09T04:16:05;3.33;;;1.70;;
22026;SDS011;11177;50.966;10.070;2022-09-09T04:18:32;5.25;;;1.60;;
22026;SDS011;11177;50.966;10.070;2022-09-09T04:21:01;6.97;;;1.88;;
22026;SDS011;11177;50.966;10.070;2022-09-09T04:23:28;4.97;;;1.75;;
22026;SDS011;11177;50.966;10.070;2022-09-09T04:25:56;6.30;;;1.73;;
22026;SDS011;11177;50.966;10.070;2022-09-09T04:28:25;3.75;;;1.67;;
22026;SDS011;11177;50.966;10.070;2022-09-09T04:30:52;2.03;;;1.50;;
22026;SDS011;11177;50.966;10.070;2022-09-09T04:33:19;4.40;;;1.30;;
22026;SDS011;11177;50.966;10.070;2022-09-09T04:35:47;2.05;;;1.40;;
22026;SDS011;11177;50.966;10.070;2022-09-09T04:38:16;3.13;;;1.40;;
22026;SDS011;11177;50.966;10.070;2022-09-09T04:40:45;3.72;;;1.30;;
22026;SDS011;11177;50.966;10.070;2022-09-09T04:43:13;3.00;;;1.50;;
22026;SDS011;11177;50.966;10.070;2022-09-09T04:45:41;4.72;;;1.77;;
22026;SDS011;11177;50.966;10.070;2022-09-09T04:48:08;8.45;;;1.80;;
22026;SDS011;11177;50.966;10.070;2022-09-09T04:50:35;4.28;;;1.48;;
22026;SDS011;11177;50.966;10.070;2022-09-09T04:53:02;4.55;;;1.60;;
22026;SDS011;11177;50.966;10.070;2022-09-09T04:55:31;3.30;;;1.35;;
22026;SDS011;11177;50.966;10.070;2022-09-09T04:58:02;2.00;;;1.33;;
22026;SDS011;11177;50.966;10.070;2022-09-09T05:00:30;3.38;;;1.60;;
22026;SDS011;11177;50.966;10.070;2022-09-09T05:02:57;2.85;;;1.45;;
22026;SDS011;11177;50.966;10.070;2022-09-09T05:05:24;2.45;;;1.35;;
22026;SDS011;11177;50.966;10.070;2022-09-09T05:07:52;5.40;;;1.60;;
22026;SDS011;11177;50.966;10.070;2022-09-09T05:10:18;5.85;;;1.90;;
22026;SDS011;11177;50.966;10.070;2022-09-09T05:12:51;3.00;;;1.65;;
22026;SDS011;11177;50.966;10.070;2022-09-09T05:15:20;6.18;;;1.80;;
22026;SDS011;11177;50.966;10.070;2022-09-09T05:17:47;4.35;;;1.60;;
22026;SDS011;11177;50.966;10.070;2022-09-09T05:20:14;3.22;;;1.50;;
22026;SDS011;11177;50.966;10.070;2022-09-09T05:22:42;4.60;;;1.50;;
22026;SDS011;11177;50.966;10.070;2022-09-09T05:25:09;2.45;;;1.30;;
22026;SDS011;11177;50.966;10.070;2022-09-09T05:27:36;2.55;;;1.60;;
22026;SDS011;11177;50.966;10.070;2022-09-09T05:30:04;7.30;;;2.08;;
22026;SDS011;11177;50.966;10.070;2022-09-09T05:32:31;2.72;;;1.60;;
22026;SDS011;11177;50.966;10.070;2022-09-09T05:35:00;4.40;;;1.70;;
22026;SDS011;11177;50.966;10.070;2022-09-09T05:37:28;4.72;;;1.60;;
22026;SDS011;11177;50.966;10.070;2022-09-09T05:39:56;5.40;;;1.60;;
22026;SDS011;11177;50.966;10.070;2022-09-09T05:42:24;4.05;;;1.70;;
22026;SDS011;11177;50.966;10.070;2022-09-09T05:44:50;5.03;;;1.60;;
22026;SDS011;11177;50.966;10.070;2022-09-09T05:47:20;3.75;;;1.90;;
22026;SDS011;11177;50.966;10.070;2022-09-09T05:49:47;3.78;;;1.70;;
22026;SDS011;11177;50.966;10.070;2022-09-09T05:52:13;5.88;;;1.95;;
22026;SDS011;11177;50.966;10.070;2022-09-09T05:54:40;3.22;;;1.70;;
22026;SDS011;11177;50.966;10.070;2022-09-09T05:57:08;6.90;;;2.13;;
22026;SDS011;11177;50.966;10.070;2022-09-09T05:59:35;6.93;;;1.80;;
22026;SDS011;11177;50.966;10.070;2022-09-09T06:02:01;4.10;;;1.90;;
22026;SDS011;11177;50.966;10.070;2022-09-09T06:04:28;4.68;;;1.95;;
22026;SDS011;11177;50.966;10.070;2022-09-09T06:06:56;3.05;;;1.70;;
22026;SDS011;11177;50.966;10.070;2022-09-09T06:09:23;4.40;;;1.95;;
22026;SDS011;11177;50.966;10.070;2022-09-09T06:11:49;3.83;;;1.80;;
22026;SDS011;11177;50.966;10.070;2022-09-09T06:14:16;2.75;;;1.85;;
22026;SDS011;11177;50.966;10.070;2022-09-09T06:16:44;5.43;;;1.83;;
22026;SDS011;11177;50.966;10.070;2022-09-09T06:19:11;8.10;;;1.77;;
22026;SDS011;11177;50.966;10.070;2022-09-09T06:21:39;4.60;;;1.60;;
22026;SDS011;11177;50.966;10.070;2022-09-09T06:24:06;4.63;;;1.85;;
22026;SDS011;11177;50.966;10.070;2022-09-09T06:26:37;3.10;;;1.60;;
22026;SDS011;11177;50.966;10.070;2022-09-09T06:29:07;4.95;;;1.70;;
22026;SDS011;11177;50.966;10.070;2022-09-09T06:31:34;4.53;;;1.60;;
22026;SDS011;11177;50.966;10.070;2022-09-09T06:34:07;3.30;;;1.70;;
22026;SDS011;11177;50.966;10.070;2022-09-09T06:36:35;5.50;;;1.80;;
22026;SDS011;11177;50.966;10.070;2022-09-09T06:39:03;2.95;;;1.77;;
22026;SDS011;11177;50.966;10.070;2022-09-09T06:41:32;3.33;;;1.80;;
22026;SDS011;11177;50.966;10.070;2022-09-09T06:43:59;4.47;;;1.88;;
22026;SDS011;11177;50.966;10.070;2022-09-09T06:46:28;2.20;;;1.35;;
22026;SDS011;11177;50.966;10.070;2022-09-09T06:48:57;4.13;;;1.40;;
22026;SDS011;11177;50.966;10.070;2022-09-09T06:51:29;4.03;;;1.20;;
22026;SDS011;11177;50.966;10.070;2022-09-09T06:54:00;2.45;;;1.40;;
22026;SDS011;11177;50.966;10.070;2022-09-09T06:56:29;2.70;;;1.50;;
22026;SDS011;11177;50.966;10.070;2022-09-09T06:58:58;5.93;;;1.40;;
22026;SDS011;11177;50.966;10.070;2022-09-09T07:01:29;2.15;;;1.17;;
22026;SDS011;11177;50.966;10.070;2022-09-09T07:03:58;4.05;;;1.20;;
22026;SDS011;11177;50.966;10.070;2022-09-09T07:06:30;4.10;;;1.10;;
22026;SDS011;11177;50.966;10.070;2022-09-09T07:08:58;5.18;;;1.35;;
22026;SDS011;11177;50.966;10.070;2022-09-09T07:11:28;3.25;;;1.15;;
22026;SDS011;11177;50.966;10.070;2022-09-09T07:13:56;2.75;;;1.10;;
22026;SDS011;11177;50.966;10.070;2022-09-09T07:16:24;3.83;;;1.40;;
22026;SDS011;11177;50.966;10.070;2022-09-09T07:18:51;5.50;;;1.30;;
22026;SDS011;11177;50.966;10.070;2022-09-09T07:21:18;2.78;;;1.08;;
22026;SDS011;11177;50.966;10.070;2022-09-09T07:23:46;4.38;;;1.02;;
22026;SDS011;11177;50.966;10.070;2022-09-09T07:26:14;2.83;;;1.15;;
22026;SDS011;11177;50.966;10.070;2022-09-09T07:28:42;3.17;;;1.10;;
22026;SDS011;11177;50.966;10.070;2022-09-09T07:31:13;3.28;;;1.33;;
22026;SDS011;11177;50.966;10.070;2022-09-09T07:33:44;2.45;;;1.20;;
22026;SDS011;11177;50.966;10.070;2022-09-09T07:36:16;1.80;;;0.98;;
22026;SDS011;11177;50.966;10.070;2022-09-09T07:38:45;3.20;;;1.13;;
22026;SDS011;11177;50.966;10.070;2022-09-09T07:41:14;2.42;;;1.20;;
22026;SDS011;11177;50.966;10.070;2022-09-09T07:43:44;7.30;;;1.27;;
22026;SDS011;11177;50.966;10.070;2022-09-09T07:46:12;3.35;;;1.10;;
22026;SDS011;11177;50.966;10.070;2022-09-09T07:48:46;2.97;;;1.10;;
22026;SDS011;11177;50.966;10.070;2022-09-09T07:51:21;4.57;;;1.20;;
22026;SDS011;11177;50.966;10.070;2022-09-09T07:53:57;3.85;;;1.20;;
22026;SDS011;11177;50.966;10.070;2022-09-09T07:56:25;7.95;;;1.20;;
22026;SDS011;11177;50.966;10.070;2022-09-09T07:58:53;2.45;;;1.10;;
22026;SDS011;11177;50.966;10.070;2022-09-09T08:01:22;4.45;;;1.00;;
22026;SDS011;11177;50.966;10.070;2022-09-09T08:03:54;6.95;;;1.20;;
22026;SDS011;11177;50.966;10.070;2022-09-09T08:06:28;3.88;;;1.00;;
22026;SDS011;11177;50.966;10.070;2022-09-09T08:08:57;5.43;;;1.42;;
22026;SDS011;11177;50.966;10.070;2022-09-09T08:11:24;7.10;;;1.20;;
22026;SDS011;11177;50.966;10.070;2022-09-09T08:13:52;2.70;;;0.98;;
22026;SDS011;11177;50.966;10.070;2022-09-09T08:16:29;1.85;;;1.00;;
22026;SDS011;11177;50.966;10.070;2022-09-09T08:18:58;5.28;;;1.42;;
22026;SDS011;11177;50.966;10.070;2022-09-09T08:21:26;5.03;;;1.10;;
22026;SDS011;11177;50.966;10.070;2022-09-09T08:23:55;3.60;;;1.20;;
22026;SDS011;11177;50.966;10.070;2022-09-09T08:26:30;6.40;;;1.90;;
22026;SDS011;11177;50.966;10.070;2022-09-09T08:29:01;4.10;;;1.20;;
22026;SDS011;11177;50.966;10.070;2022-09-09T08:31:31;4.88;;;1.35;;
22026;SDS011;11177;50.966;10.070;2022-09-09T08:34:03;4.20;;;1.48;;
22026;SDS011;11177;50.966;10.070;2022-09-09T08:36:32;6.10;;;1.33;;
22026;SDS011;11177;50.966;10.070;2022-09-09T08:39:00;3.40;;;1.27;;
22026;SDS011;11177;50.966;10.070;2022-09-09T08:41:35;7.32;;;1.45;;
22026;SDS011;11177;50.966;10.070;2022-09-09T08:44:10;6.10;;;1.35;;
22026;SDS011;11177;50.966;10.070;2022-09-09T08:55:52;8.18;;;1.80;;
22026;SDS011;11177;50.966;10.070;2022-09-09T08:58:23;4.45;;;1.10;;
22026;SDS011;11177;50.966;10.070;2022-09-09T09:04:26;3.28;;;1.15;;
22026;SDS011;11177;50.966;10.070;2022-09-09T09:07:09;2.22;;;0.98;;
22026;SDS011;11177;50.966;10.070;2022-09-09T09:10:02;2.60;;;0.88;;
22026;SDS011;11177;50.966;10.070;2022-09-09T09:16:26;3.45;;;1.20;;
22026;SDS011;11177;50.966;10.070;2022-09-09T09:19:00;3.15;;;1.10;;
22026;SDS011;11177;50.966;10.070;2022-09-09T09:21:39;4.25;;;1.00;;
22026;SDS011;11177;50.966;10.070;2022-09-09T09:24:13;4.20;;;1.10;;
22026;SDS011;11177;50.966;10.070;2022-09-09T09:26:49;4.20;;;1.10;;
22026;SDS011;11177;50.966;10.070;2022-09-09T09:29:18;3.45;;;0.95;;
22026;SDS011;11177;50.966;10.070;2022-09-09T09:31:51;2.17;;;1.25;;
22026;SDS011;11177;50.966;10.070;2022-09-09T09:34:21;3.38;;;1.02;;
22026;SDS011;11177;50.966;10.070;2022-09-09T09:36:53;5.28;;;1.10;;
22026;SDS011;11177;50.966;10.070;2022-09-09T09:39:25;4.78;;;1.40;;
22026;SDS011;11177;50.966;10.070;2022-09-09T09:42:16;5.18;;;1.35;;
22026;SDS011;11177;50.966;10.070;2022-09-09T09:44:48;3.58;;;1.23;;
22026;SDS011;11177;50.966;10.070;2022-09-09T09:47:16;5.63;;;1.10;;
22026;SDS011;11177;50.966;10.070;2022-09-09T09:49:54;5.00;;;1.00;;
22026;SDS011;11177;50.966;10.070;2022-09-09T09:52:23;6.47;;;1.55;;
22026;SDS011;11177;50.966;10.070;2022-09-09T09:54:55;5.20;;;1.20;;
22026;SDS011;11177;50.966;10.070;2022-09-09T09:57:27;6.40;;;1.10;;
22026;SDS011;11177;50.966;10.070;2022-09-09T10:00:00;3.95;;;1.10;;
22026;SDS011;11177;50.966;10.070;2022-09-09T10:03:01;2.83;;;0.80;;
22026;SDS011;11177;50.966;10.070;2022-09-09T10:05:31;3.95;;;1.13;;
22026;SDS011;11177;50.966;10.070;2022-09-09T10:08:02;3.72;;;1.20;;
22026;SDS011;11177;50.966;10.070;2022-09-09T10:11:02;4.38;;;1.30;;
22026;SDS011;11177;50.966;10.070;2022-09-09T10:13:59;4.75;;;1.05;;
22026;SDS011;11177;50.966;10.070;2022-09-09T10:16:35;3.83;;;0.90;;
22026;SDS011;11177;50.966;10.070;2022-09-09T10:19:15;3.65;;;1.02;;
22026;SDS011;11177;50.966;10.070;2022-09-09T10:24:58;7.22;;;1.20;;
22026;SDS011;11177;50.966;10.070;2022-09-09T10:28:01;6.88;;;1.27;;
22026;SDS011;11177;50.966;10.070;2022-09-09T10:30:53;3.63;;;0.90;;
22026;SDS011;11177;50.966;10.070;2022-09-09T10:33:30;5.45;;;0.90;;
22026;SDS011;11177;50.966;10.070;2022-09-09T10:36:10;8.27;;;1.20;;
22026;SDS011;11177;50.966;10.070;2022-09-09T10:38:40;4.03;;;1.08;;
22026;SDS011;11177;50.966;10.070;2022-09-09T10:41:16;5.82;;;1.48;;
22026;SDS011;11177;50.966;10.070;2022-09-09T10:44:02;6.35;;;1.27;;
22026;SDS011;11177;50.966;10.070;2022-09-09T10:46:45;3.85;;;1.00;;
22026;SDS011;11177;50.966;10.070;2022-09-09T10:51:29;4.03;;;1.23;;
22026;SDS011;11177;50.966;10.070;2022-09-09T10:56:06;5.10;;;1.10;;
22026;SDS011;11177;50.966;10.070;2022-09-09T11:01:43;3.90;;;1.10;;
22026;SDS011;11177;50.966;10.070;2022-09-09T11:04:38;7.00;;;1.20;;
22026;SDS011;11177;50.966;10.070;2022-09-09T11:07:09;4.63;;;0.90;;
22026;SDS011;11177;50.966;10.070;2022-09-09T11:09:42;2.20;;;0.88;;
22026;SDS011;11177;50.966;10.070;2022-09-09T11:12:18;4.88;;;1.00;;
22026;SDS011;11177;50.966;10.070;2022-09-09T11:14:50;6.60;;;1.08;;
22026;SDS011;11177;50.966;10.070;2022-09-09T11:17:26;4.28;;;0.80;;
22026;SDS011;11177;50.966;10.070;2022-09-09T11:20:00;4.57;;;0.80;;
22026;SDS011;11177;50.966;10.070;2022-09-09T11:22:37;3.72;;;0.90;;
22026;SDS011;11177;50.966;10.070;2022-09-09T11:25:20;4.25;;;0.90;;
22026;SDS011;11177;50.966;10.070;2022-09-09T11:31:06;2.97;;;0.90;;
22026;SDS011;11177;50.966;10.070;2022-09-09T11:33:57;3.63;;;0.95;;
22026;SDS011;11177;50.966;10.070;2022-09-09T11:40:18;5.38;;;1.10;;
22026;SDS011;11177;50.966;10.070;2022-09-09T11:42:46;4.38;;;1.30;;
22026;SDS011;11177;50.966;10.070;2022-09-09T11:45:24;3.42;;;1.10;;
22026;SDS011;11177;50.966;10.070;2022-09-09T11:47:59;3.67;;;1.02;;
22026;SDS011;11177;50.966;10.070;2022-09-09T11:50:31;3.78;;;1.00;;
22026;SDS011;11177;50.966;10.070;2022-09-09T11:58:38;2.45;;;1.00;;
22026;SDS011;11177;50.966;10.070;2022-09-09T12:01:25;6.03;;;0.90;;
22026;SDS011;11177;50.966;10.070;2022-09-09T12:03:57;2.63;;;0.80;;
22026;SDS011;11177;50.966;10.070;2022-09-09T12:06:30;3.60;;;1.30;;
22026;SDS011;11177;50.966;10.070;2022-09-09T12:09:12;4.32;;;1.10;;
22026;SDS011;11177;50.966;10.070;2022-09-09T12:11:44;3.90;;;1.00;;
22026;SDS011;11177;50.966;10.070;2022-09-09T12:14:21;2.92;;;1.15;;
22026;SDS011;11177;50.966;10.070;2022-09-09T12:17:18;5.97;;;1.27;;
22026;SDS011;11177;50.966;10.070;2022-09-09T12:19:47;4.50;;;1.33;;
22026;SDS011;11177;50.966;10.070;2022-09-09T12:22:39;8.70;;;1.10;;
22026;SDS011;11177;50.966;10.070;2022-09-09T12:28:30;4.70;;;1.25;;
22026;SDS011;11177;50.966;10.070;2022-09-09T12:31:09;4.70;;;1.00;;
22026;SDS011;11177;50.966;10.070;2022-09-09T12:34:18;4.65;;;1.05;;
22026;SDS011;11177;50.966;10.070;2022-09-09T12:36:49;2.45;;;0.88;;
22026;SDS011;11177;50.966;10.070;2022-09-09T12:39:24;5.32;;;1.08;;
22026;SDS011;11177;50.966;10.070;2022-09-09T12:41:56;1.42;;;0.75;;
22026;SDS011;11177;50.966;10.070;2022-09-09T12:44:24;3.15;;;0.57;;
22026;SDS011;11177;50.966;10.070;2022-09-09T12:46:52;2.88;;;0.57;;
22026;SDS011;11177;50.966;10.070;2022-09-09T12:49:26;2.38;;;0.50;;
22026;SDS011;11177;50.966;10.070;2022-09-09T12:51:57;4.57;;;0.50;;
22026;SDS011;11177;50.966;10.070;2022-09-09T12:54:25;2.10;;;0.60;;
22026;SDS011;11177;50.966;10.070;2022-09-09T12:56:52;5.32;;;0.60;;
22026;SDS011;11177;50.966;10.070;2022-09-09T12:59:25;3.33;;;0.50;;
22026;SDS011;11177;50.966;10.070;2022-09-09T13:01:57;7.25;;;0.63;;
22026;SDS011;11177;50.966;10.070;2022-09-09T13:04:24;3.30;;;0.60;;
22026;SDS011;11177;50.966;10.070;2022-09-09T13:06:52;3.00;;;0.50;;
22026;SDS011;11177;50.966;10.070;2022-09-09T13:09:19;2.58;;;0.40;;
22026;SDS011;11177;50.966;10.070;2022-09-09T13:11:50;3.72;;;0.40;;
22026;SDS011;11177;50.966;10.070;2022-09-09T13:14:28;2.17;;;0.40;;
22026;SDS011;11177;50.966;10.070;2022-09-09T13:16:56;2.88;;;0.40;;
22026;SDS011;11177;50.966;10.070;2022-09-09T13:19:28;0.70;;;0.30;;
22026;SDS011;11177;50.966;10.070;2022-09-09T13:21:57;5.15;;;0.40;;
22026;SDS011;11177;50.966;10.070;2022-09-09T13:24:26;5.35;;;0.50;;
22026;SDS011;11177;50.966;10.070;2022-09-09T13:26:57;1.77;;;0.57;;
22026;SDS011;11177;50.966;10.070;2022-09-09T13:29:28;2.70;;;0.50;;
22026;SDS011;11177;50.966;10.070;2022-09-09T13:32:05;5.75;;;1.42;;
22026;SDS011;11177;50.966;10.070;2022-09-09T13:34:34;3.17;;;0.45;;
22026;SDS011;11177;50.966;10.070;2022-09-09T13:37:05;1.83;;;0.50;;
22026;SDS011;11177;50.966;10.070;2022-09-09T13:39:36;3.22;;;0.88;;
22026;SDS011;11177;50.966;10.070;2022-09-09T13:42:03;3.17;;;0.65;;
22026;SDS011;11177;50.966;10.070;2022-09-09T13:44:31;3.03;;;0.57;;
22026;SDS011;11177;50.966;10.070;2022-09-09T13:47:04;3.70;;;0.70;;
22026;SDS011;11177;50.966;10.070;2022-09-09T13:49:35;1.48;;;0.43;;
22026;SDS011;11177;50.966;10.070;2022-09-09T13:52:08;2.20;;;0.80;;
22026;SDS011;11177;50.966;10.070;2022-09-09T13:54:38;3.63;;;0.60;;
22026;SDS011;11177;50.966;10.070;2022-09-09T13:57:05;2.63;;;0.43;;
22026;SDS011;11177;50.966;10.070;2022-09-09T13:59:41;2.78;;;0.40;;
22026;SDS011;11177;50.966;10.070;2022-09-09T14:02:29;3.25;;;0.57;;
22026;SDS011;11177;50.966;10.070;2022-09-09T14:04:57;1.30;;;0.50;;
22026;SDS011;11177;50.966;10.070;2022-09-09T14:07:24;1.65;;;0.40;;
22026;SDS011;11177;50.966;10.070;2022-09-09T14:09:51;3.05;;;0.55;;
22026;SDS011;11177;50.966;10.070;2022-09-09T14:12:19;2.25;;;0.60;;
22026;SDS011;11177;50.966;10.070;2022-09-09T14:14:46;1.70;;;0.40;;
22026;SDS011;11177;50.966;10.070;2022-09-09T14:17:13;2.38;;;0.30;;
22026;SDS011;11177;50.966;10.070;2022-09-09T14:19:40;1.60;;;0.30;;
22026;SDS011;11177;50.966;10.070;2022-09-09T14:22:07;2.42;;;0.38;;
22026;SDS011;11177;50.966;10.070;2022-09-09T14:24:34;3.33;;;0.60;;
22026;SDS011;11177;50.966;10.070;2022-09-09T14:27:00;1.58;;;0.40;;
22026;SDS011;11177;50.966;10.070;2022-09-09T14:29:27;1.70;;;0.43;;
22026;SDS011;11177;50.966;10.070;2022-09-09T14:31:54;1.45;;;0.50;;
22026;SDS011;11177;50.966;10.070;2022-09-09T14:34:21;2.38;;;0.60;;
22026;SDS011;11177;50.966;10.070;2022-09-09T14:36:47;2.25;;;0.70;;
22026;SDS011;11177;50.966;10.070;2022-09-09T14:39:14;1.45;;;0.52;;
22026;SDS011;11177;50.966;10.070;2022-09-09T14:41:41;1.08;;;0.43;;
22026;SDS011;11177;50.966;10.070;2022-09-09T14:44:09;5.30;;;0.70;;
22026;SDS011;11177;50.966;10.070;2022-09-09T14:46:36;0.95;;;0.40;;
22026;SDS011;11177;50.966;10.070;2022-09-09T14:49:03;1.83;;;0.45;;
22026;SDS011;11177;50.966;10.070;2022-09-09T14:51:30;3.28;;;0.60;;
22026;SDS011;11177;50.966;10.070;2022-09-09T14:53:58;4.10;;;0.50;;
22026;SDS011;11177;50.966;10.070;2022-09-09T14:56:27;2.15;;;0.60;;
22026;SDS011;11177;50.966;10.070;2022-09-09T14:58:56;1.40;;;0.40;;
22026;SDS011;11177;50.966;10.070;2022-09-09T15:01:24;2.92;;;0.50;;
22026;SDS011;11177;50.966;10.070;2022-09-09T15:03:56;1.77;;;0.65;;
22026;SDS011;11177;50.966;10.070;2022-09-09T15:06:25;3.50;;;0.98;;
22026;SDS011;11177;50.966;10.070;2022-09-09T15:08:53;2.60;;;0.90;;
22026;SDS011;11177;50.966;10.070;2022-09-09T15:11:20;2.58;;;0.65;;
22026;SDS011;11177;50.966;10.070;2022-09-09T15:13:50;6.15;;;0.90;;
22026;SDS011;11177;50.966;10.070;2022-09-09T15:16:19;5.38;;;0.70;;
22026;SDS011;11177;50.966;10.070;2022-09-09T15:18:46;4.40;;;0.70;;
22026;SDS011;11177;50.966;10.070;2022-09-09T15:21:14;3.20;;;0.60;;
22026;SDS011;11177;50.966;10.070;2022-09-09T15:23:42;4.47;;;0.77;;
22026;SDS011;11177;50.966;10.070;2022-09-09T15:26:09;5.63;;;0.80;;
22026;SDS011;11177;50.966;10.070;2022-09-09T15:28:37;4.45;;;0.60;;
22026;SDS011;11177;50.966;10.070;2022-09-09T15:31:14;2.50;;;0.70;;
22026;SDS011;11177;50.966;10.070;2022-09-09T15:33:52;1.38;;;0.40;;
22026;SDS011;11177;50.966;10.070;2022-09-09T15:36:24;4.22;;;0.60;;
22026;SDS011;11177;50.966;10.070;2022-09-09T15:38:52;1.45;;;0.55;;
22026;SDS011;11177;50.966;10.070;2022-09-09T15:41:19;1.33;;;0.50;;
22026;SDS011;11177;50.966;10.070;2022-09-09T15:43:51;3.53;;;0.80;;
22026;SDS011;11177;50.966;10.070;2022-09-09T15:46:24;5.70;;;0.60;;
22026;SDS011;11177;50.966;10.070;2022-09-09T15:51:32;8.68;;;1.13;;
22026;SDS011;11177;50.966;10.070;2022-09-09T15:54:09;8.60;;;1.00;;
22026;SDS011;11177;50.966;10.070;2022-09-09T15:56:39;3.78;;;0.68;;
22026;SDS011;11177;50.966;10.070;2022-09-09T15:59:06;2.33;;;0.73;;
22026;SDS011;11177;50.966;10.070;2022-09-09T16:01:33;5.93;;;0.68;;
22026;SDS011;11177;50.966;10.070;2022-09-09T16:04:00;8.75;;;1.20;;
22026;SDS011;11177;50.966;10.070;2022-09-09T16:06:28;3.85;;;0.88;;
22026;SDS011;11177;50.966;10.070;2022-09-09T16:08:57;4.28;;;0.57;;
22026;SDS011;11177;50.966;10.070;2022-09-09T16:11:26;4.93;;;0.60;;
22026;SDS011;11177;50.966;10.070;2022-09-09T16:13:55;5.63;;;0.60;;
22026;SDS011;11177;50.966;10.070;2022-09-09T16:16:23;2.92;;;0.68;;
22026;SDS011;11177;50.966;10.070;2022-09-09T16:18:52;4.60;;;1.20;;
22026;SDS011;11177;50.966;10.070;2022-09-09T16:21:21;11.70;;;1.35;;
22026;SDS011;11177;50.966;10.070;2022-09-09T16:23:51;2.17;;;0.55;;
22026;SDS011;11177;50.966;10.070;2022-09-09T16:26:19;6.55;;;0.80;;
22026;SDS011;11177;50.966;10.070;2022-09-09T16:28:46;3.08;;;0.60;;
22026;SDS011;11177;50.966;10.070;2022-09-09T16:31:17;2.17;;;0.68;;
22026;SDS011;11177;50.966;10.070;2022-09-09T16:33:46;2.13;;;0.70;;
22026;SDS011;11177;50.966;10.070;2022-09-09T16:36:15;2.00;;;0.50;;
22026;SDS011;11177;50.966;10.070;2022-09-09T16:38:43;2.42;;;0.43;;